createdAt,value
2023-02-28T00:01:33.338Z,99457.81
2023-02-28T00:04:01.849Z,99459.38
2023-02-28T00:06:31.438Z,99464.41
2023-02-28T00:08:59.509Z,99467.16
2023-02-28T00:11:27.915Z,99469.81
2023-02-28T00:13:56.361Z,99474.06
2023-02-28T00:16:25.035Z,99471.38
2023-02-28T00:18:53.282Z,99468.72
2023-02-28T00:21:22.154Z,99473.34
2023-02-28T00:23:51.563Z,99466.00
2023-02-28T00:26:21.796Z,99464.44
2023-02-28T00:28:51.256Z,99469.56
2023-02-28T00:31:19.468Z,99471.06
2023-02-28T00:33:50.012Z,99470.25
2023-02-28T00:36:18.226Z,99466.34
2023-02-28T00:38:46.319Z,99474.56
2023-02-28T00:41:15.847Z,99467.97
2023-02-28T00:43:43.986Z,99466.78
2023-02-28T00:46:12.840Z,99469.91
2023-02-28T00:48:40.917Z,99461.38
2023-02-28T00:51:08.952Z,99464.91
2023-02-28T00:53:37.119Z,99466.09
2023-02-28T00:56:05.709Z,99459.09
2023-02-28T00:58:35.168Z,99464.53
2023-02-28T01:01:03.256Z,99463.00
2023-02-28T01:03:31.526Z,99462.63
2023-02-28T01:06:00.323Z,99464.25
2023-02-28T01:08:28.906Z,99470.09
2023-02-28T01:10:57.493Z,99477.84
2023-02-28T01:13:26.446Z,99465.41
2023-02-28T01:15:58.142Z,99470.09
2023-02-28T01:18:26.759Z,99466.22
2023-02-28T01:20:55.170Z,99470.50
2023-02-28T01:23:25.206Z,99463.88
2023-02-28T01:25:53.877Z,99466.25
2023-02-28T01:28:22.149Z,99467.44
2023-02-28T01:30:52.337Z,99472.88
2023-02-28T01:33:22.049Z,99474.84
2023-02-28T01:35:50.222Z,99473.28
2023-02-28T01:38:23.096Z,99469.78
2023-02-28T01:40:51.998Z,99474.06
2023-02-28T01:43:24.769Z,99476.38
2023-02-28T01:45:54.824Z,99475.22
2023-02-28T01:48:28.969Z,99481.44
2023-02-28T01:51:01.326Z,99473.28
2023-02-28T01:53:34.574Z,99485.34
2023-02-28T01:56:06.037Z,99469.38
2023-02-28T01:58:34.454Z,99477.94
2023-02-28T02:01:04.037Z,99479.16
2023-02-28T02:03:33.559Z,99471.75
2023-02-28T02:06:01.614Z,99470.56
2023-02-28T02:08:31.674Z,99474.09
2023-02-28T02:11:02.098Z,99465.94
2023-02-28T02:13:47.736Z,99467.13
2023-02-28T02:16:33.310Z,99460.13
2023-02-28T02:19:17.293Z,99464.78
2023-02-28T02:22:13.489Z,99465.97
2023-02-28T02:25:16.239Z,99466.34
2023-02-28T02:28:13.835Z,99460.53
2023-02-28T02:31:07.493Z,99461.72
2023-02-28T02:34:26.051Z,99457.47
2023-02-28T02:37:04.874Z,99450.06
2023-02-28T02:39:43.018Z,99446.56
2023-02-28T02:42:17.885Z,99445.81
2023-02-28T02:44:50.735Z,99448.91
2023-02-28T02:47:23.026Z,99443.09
2023-02-28T02:49:54.789Z,99446.97
2023-02-28T02:52:29.908Z,99444.63
2023-02-28T02:55:00.334Z,99449.31
2023-02-28T02:57:35.154Z,99449.66
2023-02-28T03:00:06.223Z,99444.63
2023-02-28T03:02:35.457Z,99448.50
2023-02-28T03:05:07.776Z,99448.13
2023-02-28T03:07:37.425Z,99436.47
2023-02-28T03:10:20.858Z,99449.69
2023-02-28T03:13:06.213Z,99444.22
2023-02-28T03:15:47.661Z,99448.47
2023-02-28T03:18:25.592Z,99447.31
2023-02-28T03:21:02.501Z,99451.22
2023-02-28T03:23:40.576Z,99449.63
2023-02-28T03:26:18.529Z,99450.03
2023-02-28T03:28:55.755Z,99453.13
2023-02-28T03:31:29.778Z,99454.28
2023-02-28T03:34:03.913Z,99453.91
2023-02-28T03:36:42.837Z,99453.91
2023-02-28T03:39:16.367Z,99461.25
2023-02-28T03:41:50.683Z,99457.41
2023-02-28T03:44:24.056Z,99465.16
2023-02-28T03:47:02.809Z,99469.78
2023-02-28T03:49:35.376Z,99472.13
2023-02-28T03:52:06.119Z,99472.53
2023-02-28T03:54:39.826Z,99467.84
2023-02-28T03:57:18.209Z,99469.78
2023-02-28T03:59:50.822Z,99470.16
2023-02-28T04:02:19.611Z,99467.03
2023-02-28T04:04:49.418Z,99475.94
2023-02-28T04:07:18.176Z,99470.91
2023-02-28T04:09:47.708Z,99475.56
2023-02-28T04:12:15.788Z,99470.84
2023-02-28T04:14:43.925Z,99475.53
2023-02-28T04:17:12.070Z,99473.59
2023-02-28T04:19:40.197Z,99474.38
2023-02-28T04:22:08.347Z,99477.09
2023-02-28T04:24:36.572Z,99475.91
2023-02-28T04:27:06.022Z,99479.41
2023-02-28T04:29:34.502Z,99484.84
2023-02-28T04:32:04.027Z,99482.88
2023-02-28T04:34:34.061Z,99487.47
2023-02-28T04:37:12.939Z,99487.06
2023-02-28T04:39:42.307Z,99487.09
2023-02-28T04:42:12.622Z,99484.00
2023-02-28T04:44:40.660Z,99480.06
2023-02-28T04:47:08.822Z,99483.97
2023-02-28T04:49:36.876Z,99497.91
2023-02-28T04:52:04.920Z,99494.81
2023-02-28T04:54:32.973Z,99495.56
2023-02-28T04:57:02.574Z,99493.22
2023-02-28T04:59:31.997Z,99497.03
2023-02-28T05:02:00.049Z,99497.75
2023-02-28T05:04:28.313Z,99499.31
2023-02-28T05:06:56.422Z,99489.22
2023-02-28T05:09:24.546Z,99497.34
2023-02-28T05:11:52.612Z,99506.22
2023-02-28T05:14:20.698Z,99507.72
2023-02-28T05:16:50.104Z,99512.63
2023-02-28T05:19:18.283Z,99506.41
2023-02-28T05:21:53.234Z,99514.00
2023-02-28T05:24:23.825Z,99509.41
2023-02-28T05:26:53.881Z,99515.22
2023-02-28T05:29:22.024Z,99514.81
2023-02-28T05:31:51.835Z,99515.25
2023-02-28T05:34:20.332Z,99517.91
2023-02-28T05:36:48.421Z,99527.63
2023-02-28T05:39:16.510Z,99521.06
2023-02-28T05:41:45.702Z,99525.16
2023-02-28T05:44:13.808Z,99517.53
2023-02-28T05:46:41.911Z,99524.53
2023-02-28T05:49:11.371Z,99527.63
2023-02-28T05:51:41.018Z,99534.66
2023-02-28T05:54:09.763Z,99543.13
2023-02-28T05:56:40.132Z,99542.41
2023-02-28T05:59:08.533Z,99553.41
2023-02-28T06:01:38.645Z,99546.50
2023-02-28T06:04:14.315Z,99563.66
2023-02-28T06:06:49.713Z,99555.59
2023-02-28T06:09:17.865Z,99556.81
2023-02-28T06:11:46.168Z,99557.09
2023-02-28T06:14:17.882Z,99558.78
2023-02-28T06:16:46.482Z,99550.66
2023-02-28T06:19:16.110Z,99553.38
2023-02-28T06:21:44.833Z,99553.81
2023-02-28T06:24:14.255Z,99564.59
2023-02-28T06:26:42.392Z,99572.44
2023-02-28T06:29:10.455Z,99565.16
2023-02-28T06:31:39.463Z,99569.41
2023-02-28T06:34:07.572Z,99567.09
2023-02-28T06:36:35.759Z,99573.31
2023-02-28T06:39:03.873Z,99571.44
2023-02-28T06:41:53.550Z,99577.66
2023-02-28T06:44:24.212Z,99574.13
2023-02-28T06:46:52.329Z,99579.16
2023-02-28T06:49:20.480Z,99571.41
2023-02-28T06:51:48.502Z,99575.69
2023-02-28T06:54:16.598Z,99583.91
2023-02-28T06:56:46.063Z,99582.72
2023-02-28T06:59:14.176Z,99593.63
2023-02-28T07:01:42.733Z,99593.25
2023-02-28T07:04:11.179Z,99588.09
2023-02-28T07:06:39.233Z,99590.13
2023-02-28T07:09:10.406Z,99587.41
2023-02-28T07:11:38.530Z,99590.56
2023-02-28T07:14:08.017Z,99592.53
2023-02-28T07:16:36.167Z,99592.09
2023-02-28T07:19:04.294Z,99597.19
2023-02-28T07:21:32.585Z,99603.09
2023-02-28T07:24:00.692Z,99600.00
2023-02-28T07:26:28.956Z,99598.84
2023-02-28T07:28:56.977Z,99603.16
2023-02-28T07:31:26.494Z,99599.28
2023-02-28T07:33:55.014Z,99604.31
2023-02-28T07:36:23.217Z,99607.47
2023-02-28T07:38:51.929Z,99605.13
2023-02-28T07:41:21.573Z,99606.31
2023-02-28T07:43:49.972Z,99609.03
2023-02-28T07:46:21.362Z,99610.22
2023-02-28T07:48:50.909Z,99602.81
2023-02-28T07:51:19.286Z,99607.88
2023-02-28T07:53:47.474Z,99604.78
2023-02-28T07:56:15.483Z,99604.78
2023-02-28T07:58:43.664Z,99607.50
2023-02-28T08:01:12.898Z,99600.50
2023-02-28T08:03:42.067Z,99599.31
2023-02-28T08:06:18.701Z,99598.16
2023-02-28T08:08:46.901Z,99600.88
2023-02-28T08:11:14.942Z,99603.56
2023-02-28T08:13:45.014Z,99606.25
2023-02-28T08:16:16.518Z,99611.34
2023-02-28T08:18:44.703Z,99600.03
2023-02-28T08:21:14.175Z,99599.59
2023-02-28T08:23:42.360Z,99597.63
2023-02-28T08:26:10.454Z,99607.06
2023-02-28T08:28:38.515Z,99605.78
2023-02-28T08:31:10.320Z,99613.94
2023-02-28T08:33:40.076Z,99605.84
2023-02-28T08:36:09.762Z,99604.19
2023-02-28T08:38:39.676Z,99608.44
2023-02-28T08:41:10.133Z,99607.13
2023-02-28T08:43:38.610Z,99607.50
2023-02-28T08:46:07.805Z,99603.91
2023-02-28T08:48:38.965Z,99607.13
2023-02-28T08:51:12.282Z,99608.69
2023-02-28T08:53:42.535Z,99609.91
2023-02-28T08:56:13.258Z,99604.41
2023-02-28T08:58:42.026Z,99609.00
2023-02-28T09:01:13.088Z,99606.09
2023-02-28T09:03:42.557Z,99602.59
2023-02-28T09:06:12.436Z,99603.41
2023-02-28T09:08:42.469Z,99599.00
2023-02-28T09:11:10.945Z,99607.03
2023-02-28T09:13:41.974Z,99603.88
2023-02-28T09:16:13.322Z,99608.91
2023-02-28T09:18:42.551Z,99597.38
2023-02-28T09:21:14.590Z,99614.81
2023-02-28T09:23:45.057Z,99608.00
2023-02-28T09:26:16.497Z,99610.09
2023-02-28T09:28:44.648Z,99605.00
2023-02-28T09:31:15.808Z,99602.78
2023-02-28T09:33:44.015Z,99606.03
2023-02-28T09:36:12.119Z,99608.13
2023-02-28T09:38:40.771Z,99604.28
2023-02-28T09:41:16.769Z,99606.31
2023-02-28T09:43:48.008Z,99597.94
2023-02-28T09:46:33.676Z,99606.94
2023-02-28T09:49:04.678Z,99606.25
2023-02-28T09:51:42.417Z,99600.03
2023-02-28T09:54:19.809Z,99603.94
2023-02-28T09:56:54.345Z,99612.75
2023-02-28T09:59:38.249Z,99606.66
2023-02-28T10:02:15.820Z,99616.50
2023-02-28T10:04:52.646Z,99611.34
2023-02-28T10:07:39.947Z,99612.41
2023-02-28T10:10:22.510Z,99615.03
2023-02-28T10:12:54.872Z,99614.66
2023-02-28T10:15:27.386Z,99605.28
2023-02-28T10:18:08.452Z,99612.59
2023-02-28T10:20:39.656Z,99593.75
2023-02-28T10:23:15.300Z,99596.47
2023-02-28T10:25:49.110Z,99594.47
2023-02-28T10:28:20.084Z,99591.59
2023-02-28T10:30:50.254Z,99590.19
2023-02-28T10:33:23.706Z,99588.72
2023-02-28T10:35:51.945Z,99586.47
2023-02-28T10:38:22.360Z,99585.31
2023-02-28T10:40:50.534Z,99589.03
2023-02-28T10:43:25.721Z,99584.47
2023-02-28T10:46:04.546Z,99573.97
2023-02-28T10:48:36.401Z,99580.69
2023-02-28T10:51:05.974Z,99562.78
2023-02-28T10:53:57.578Z,99572.88
2023-02-28T10:56:28.407Z,99570.22
2023-02-28T10:58:59.731Z,99577.50
2023-02-28T11:01:39.157Z,99562.38
2023-02-28T11:04:22.600Z,99561.88
2023-02-28T11:06:59.973Z,99563.50
2023-02-28T11:09:32.810Z,99559.72
2023-02-28T11:12:01.512Z,99557.50
2023-02-28T11:14:33.482Z,99545.03
2023-02-28T11:17:17.389Z,99545.44
2023-02-28T11:19:49.863Z,99545.75
2023-02-28T11:22:22.256Z,99539.88
2023-02-28T11:24:55.026Z,99534.22
2023-02-28T11:27:48.033Z,99533.00
2023-02-28T11:30:36.242Z,99530.00
2023-02-28T11:33:23.642Z,99532.34
2023-02-28T11:35:53.449Z,99537.72
2023-02-28T11:38:21.707Z,99524.81
2023-02-28T11:41:01.854Z,99521.75
2023-02-28T11:43:43.185Z,99526.13
2023-02-28T11:46:23.435Z,99520.50
2023-02-28T11:49:00.743Z,99519.19
2023-02-28T11:51:34.743Z,99513.38
2023-02-28T11:54:26.788Z,99521.63
2023-02-28T11:56:59.851Z,99518.03
2023-02-28T11:59:49.137Z,99515.81
2023-02-28T12:02:30.796Z,99515.84
2023-02-28T12:05:20.078Z,99516.38
2023-02-28T12:07:57.470Z,99507.84
2023-02-28T12:10:28.302Z,99509.19
2023-02-28T12:13:10.541Z,99507.22
2023-02-28T12:16:19.783Z,99512.59
2023-02-28T12:19:05.778Z,99506.22
2023-02-28T12:21:47.482Z,99506.97
2023-02-28T12:24:39.995Z,99498.16
2023-02-28T12:27:12.162Z,99493.75
2023-02-28T12:29:49.141Z,99502.88
2023-02-28T12:32:22.791Z,99500.50
2023-02-28T12:34:57.298Z,99504.75
2023-02-28T12:37:30.248Z,99515.13
2023-02-28T12:40:06.630Z,99499.72
2023-02-28T12:42:40.818Z,99500.66
2023-02-28T12:45:14.545Z,99497.91
2023-02-28T12:47:46.854Z,99504.19
2023-02-28T12:50:17.672Z,99498.34
2023-02-28T12:52:55.389Z,99502.66
2023-02-28T12:55:29.679Z,99495.22
2023-02-28T12:58:10.579Z,99490.19
2023-02-28T13:00:47.150Z,99490.59
2023-02-28T13:03:52.897Z,99490.44
2023-02-28T13:06:43.918Z,99486.56
2023-02-28T13:09:13.644Z,99494.59
2023-02-28T13:11:44.943Z,99486.81
2023-02-28T13:14:25.742Z,99491.06
2023-02-28T13:17:00.634Z,99492.59
2023-02-28T13:19:31.493Z,99487.28
2023-02-28T13:22:03.087Z,99489.25
2023-02-28T13:24:50.523Z,99486.78
2023-02-28T13:27:34.975Z,99482.97
2023-02-28T13:30:03.771Z,99473.16
2023-02-28T13:32:40.168Z,99473.13
2023-02-28T13:35:17.132Z,99472.25
2023-02-28T13:37:50.913Z,99468.16
2023-02-28T13:40:38.199Z,99466.94
2023-02-28T13:43:10.619Z,99470.56
2023-02-28T13:45:40.796Z,99470.22
2023-02-28T13:48:20.138Z,99463.59
2023-02-28T13:50:49.068Z,99464.53
2023-02-28T13:54:00.285Z,99456.00
2023-02-28T13:56:41.825Z,99452.00
2023-02-28T13:59:24.808Z,99451.22
2023-02-28T14:02:15.957Z,99450.28
2023-02-28T14:05:02.798Z,99445.28
2023-02-28T14:07:36.563Z,99436.94
2023-02-28T14:10:09.653Z,99441.31
2023-02-28T14:13:03.234Z,99429.44
2023-02-28T14:15:49.225Z,99425.03
2023-02-28T14:18:27.036Z,99430.22
2023-02-28T14:21:00.265Z,99430.38
2023-02-28T14:23:57.930Z,99432.69
2023-02-28T14:26:53.588Z,99429.94
2023-02-28T14:29:39.529Z,99432.31
2023-02-28T14:32:17.098Z,99424.03
2023-02-28T14:34:53.133Z,99432.91
2023-02-28T14:37:27.119Z,99433.34
2023-02-28T14:39:57.306Z,99431.16
2023-02-28T14:42:35.024Z,99433.34
2023-02-28T14:45:03.879Z,99431.91
2023-02-28T14:47:34.759Z,99430.31
2023-02-28T14:50:06.236Z,99427.50
2023-02-28T14:52:35.266Z,99435.84
2023-02-28T14:55:08.179Z,99434.81
2023-02-28T14:57:42.919Z,99436.25
2023-02-28T15:00:18.385Z,99439.50
2023-02-28T15:02:46.636Z,99434.28
2023-02-28T15:05:34.275Z,99440.28
2023-02-28T15:08:14.909Z,99438.22
2023-02-28T15:10:45.727Z,99435.41
2023-02-28T15:13:17.149Z,99435.97
2023-02-28T15:16:05.239Z,99434.44
2023-02-28T15:18:46.896Z,99433.88
2023-02-28T15:21:19.220Z,99428.25
2023-02-28T15:23:53.674Z,99434.34
2023-02-28T15:26:24.681Z,99420.00
2023-02-28T15:28:59.581Z,99433.09
2023-02-28T15:31:37.053Z,99436.44
2023-02-28T15:34:21.920Z,99433.59
2023-02-28T15:36:51.346Z,99438.34
2023-02-28T15:39:24.371Z,99436.81
2023-02-28T15:41:52.974Z,99431.72
2023-02-28T15:44:31.259Z,99432.94
2023-02-28T15:47:03.300Z,99436.91
2023-02-28T15:49:44.916Z,99435.53
2023-02-28T15:52:17.903Z,99437.63
2023-02-28T15:54:47.064Z,99441.63
2023-02-28T15:57:19.738Z,99442.66
2023-02-28T15:59:54.059Z,99426.66
2023-02-28T16:02:24.235Z,99437.53
2023-02-28T16:05:04.294Z,99431.16
2023-02-28T16:07:32.608Z,99436.13
2023-02-28T16:10:01.315Z,99437.59
2023-02-28T16:12:31.922Z,99438.38
2023-02-28T16:15:04.055Z,99441.03
2023-02-28T16:17:35.910Z,99441.81
2023-02-28T16:20:14.678Z,99441.06
2023-02-28T16:22:43.852Z,99443.75
2023-02-28T16:25:14.254Z,99438.91
2023-02-28T16:27:44.017Z,99441.88
2023-02-28T16:30:21.053Z,99444.50
2023-02-28T16:32:50.189Z,99443.03
2023-02-28T16:35:18.990Z,99451.25
2023-02-28T16:37:47.723Z,99449.81
2023-02-28T16:40:17.529Z,99448.09
2023-02-28T16:42:47.741Z,99454.59
2023-02-28T16:45:24.032Z,99451.22
2023-02-28T16:47:52.538Z,99459.28
2023-02-28T16:50:22.609Z,99458.34
2023-02-28T16:52:53.210Z,99456.72
2023-02-28T16:55:21.538Z,99466.28
2023-02-28T16:57:53.985Z,99461.19
2023-02-28T17:00:24.823Z,99461.59
2023-02-28T17:02:53.201Z,99462.00
2023-02-28T17:05:21.822Z,99468.31
2023-02-28T17:07:50.720Z,99458.91
2023-02-28T17:10:21.602Z,99466.47
2023-02-28T17:12:50.175Z,99463.66
2023-02-28T17:15:20.676Z,99461.84
2023-02-28T17:17:51.185Z,99461.91
2023-02-28T17:20:23.652Z,99467.09
2023-02-28T17:22:52.405Z,99470.69
2023-02-28T17:25:20.806Z,99472.69
2023-02-28T17:27:49.607Z,99474.59
2023-02-28T17:30:19.751Z,99469.59
2023-02-28T17:32:48.212Z,99463.06
2023-02-28T17:35:18.178Z,99470.53
2023-02-28T17:37:46.472Z,99463.53
2023-02-28T17:40:16.700Z,99469.78
2023-02-28T17:42:45.252Z,99461.22
2023-02-28T17:45:14.258Z,99464.41
2023-02-28T17:47:44.130Z,99461.72
2023-02-28T17:50:17.028Z,99455.44
2023-02-28T17:52:47.329Z,99463.59
2023-02-28T17:55:15.983Z,99463.66
2023-02-28T17:57:44.227Z,99460.97
2023-02-28T18:00:14.821Z,99462.53
2023-02-28T18:02:44.051Z,99457.13
2023-02-28T18:05:12.773Z,99465.72
2023-02-28T18:07:41.755Z,99459.88
2023-02-28T18:10:16.231Z,99460.25
2023-02-28T18:12:45.037Z,99460.25
2023-02-28T18:15:13.210Z,99462.22
2023-02-28T18:17:41.497Z,99460.75
2023-02-28T18:20:11.914Z,99456.47
2023-02-28T18:22:40.496Z,99462.34
2023-02-28T18:25:14.703Z,99458.03
2023-02-28T18:27:54.155Z,99455.75
2023-02-28T18:30:23.250Z,99452.66
2023-02-28T18:32:51.703Z,99456.19
2023-02-28T18:35:34.888Z,99462.41
2023-02-28T18:38:05.636Z,99458.91
2023-02-28T18:40:35.252Z,99461.31
2023-02-28T18:43:03.660Z,99457.81
2023-02-28T18:45:32.319Z,99453.16
2023-02-28T18:48:00.516Z,99450.84
2023-02-28T18:50:29.653Z,99459.03
2023-02-28T18:52:59.277Z,99450.88
2023-02-28T18:55:27.980Z,99453.22
2023-02-28T18:57:57.561Z,99457.16
2023-02-28T19:00:26.048Z,99450.19
2023-02-28T19:02:54.212Z,99454.47
2023-02-28T19:05:22.659Z,99447.47
2023-02-28T19:07:51.637Z,99442.78
2023-02-28T19:10:19.979Z,99445.13
2023-02-28T19:12:49.294Z,99455.25
2023-02-28T19:15:19.031Z,99451.75
2023-02-28T19:17:47.363Z,99447.50
2023-02-28T19:20:15.554Z,99457.25
2023-02-28T19:22:44.316Z,99451.81
2023-02-28T19:25:12.760Z,99449.50
2023-02-28T19:27:40.959Z,99460.81
2023-02-28T19:30:10.926Z,99445.63
2023-02-28T19:32:40.505Z,99455.72
2023-02-28T19:35:09.438Z,99456.91
2023-02-28T19:37:39.967Z,99458.44
2023-02-28T19:40:09.990Z,99452.25
2023-02-28T19:42:38.586Z,99449.94
2023-02-28T19:45:10.202Z,99457.31
2023-02-28T19:47:41.736Z,99452.28
2023-02-28T19:50:12.341Z,99448.78
2023-02-28T19:55:14.088Z,99453.84
2023-02-28T19:57:42.132Z,99457.34
2023-02-28T20:00:12.359Z,99449.19
2023-02-28T20:02:43.940Z,99447.25
2023-02-28T20:05:13.449Z,99448.41
2023-02-28T20:07:41.480Z,99448.03
2023-02-28T20:10:11.004Z,99451.91
2023-02-28T20:12:39.150Z,99458.94
2023-02-28T20:15:08.570Z,99452.72
2023-02-28T20:17:36.767Z,99460.13
2023-02-28T20:20:05.561Z,99469.47
2023-02-28T20:22:38.264Z,99470.22
2023-02-28T20:25:08.112Z,99457.44
2023-02-28T20:27:36.391Z,99456.63
2023-02-28T20:30:05.798Z,99463.25
2023-02-28T20:32:34.006Z,99462.84
2023-02-28T20:35:02.119Z,99469.09
2023-02-28T20:37:30.316Z,99459.38
2023-02-28T20:40:00.079Z,99463.25
2023-02-28T20:42:28.185Z,99454.69
2023-02-28T20:44:56.219Z,99456.25
2023-02-28T20:47:24.271Z,99446.56
2023-02-28T20:49:52.369Z,99442.25
2023-02-28T20:52:20.480Z,99444.59
2023-02-28T20:54:48.559Z,99439.16
2023-02-28T20:57:17.946Z,99445.38
2023-02-28T20:59:46.102Z,99440.28
2023-02-28T21:02:17.688Z,99436.44
2023-02-28T21:04:45.952Z,99430.22
2023-02-28T21:07:13.961Z,99439.16
2023-02-28T21:09:42.313Z,99443.41
2023-02-28T21:12:11.509Z,99430.63
2023-02-28T21:14:41.567Z,99439.94
2023-02-28T21:17:10.523Z,99442.69
2023-02-28T21:19:38.648Z,99436.47
2023-02-28T21:22:06.772Z,99436.44
2023-02-28T21:24:34.853Z,99430.66
2023-02-28T21:27:02.930Z,99432.19
2023-02-28T21:29:31.051Z,99449.25
2023-02-28T21:32:00.631Z,99439.94
2023-02-28T21:34:29.576Z,99444.63
2023-02-28T21:36:57.622Z,99451.63
2023-02-28T21:39:28.885Z,99444.63
2023-02-28T21:42:03.895Z,99448.53
2023-02-28T21:44:34.436Z,99452.81
2023-02-28T21:47:04.180Z,99446.56
2023-02-28T21:49:32.559Z,99444.63
2023-02-28T21:52:00.808Z,99438.78
2023-02-28T21:54:28.869Z,99439.16
2023-02-28T21:56:57.485Z,99435.66
2023-02-28T21:59:25.851Z,99434.50
2023-02-28T22:01:55.232Z,99431.34
2023-02-28T22:04:25.047Z,99429.78
2023-02-28T22:06:54.879Z,99432.16
2023-02-28T22:09:23.360Z,99434.09
2023-02-28T22:11:51.791Z,99431.72
2023-02-28T22:14:20.439Z,99432.09
2023-02-28T22:16:52.589Z,99436.72
2023-02-28T22:19:22.044Z,99433.59
2023-02-28T22:21:53.826Z,99443.72
2023-02-28T22:24:24.602Z,99433.94
2023-02-28T22:26:53.702Z,99439.81
2023-02-28T22:29:21.860Z,99439.41
2023-02-28T22:31:50.068Z,99452.25
2023-02-28T22:34:18.290Z,99445.66
2023-02-28T22:36:46.381Z,99457.75
2023-02-28T22:39:15.916Z,99452.34
2023-02-28T22:41:43.982Z,99460.06
2023-02-28T22:44:12.242Z,99469.41
2023-02-28T22:46:40.362Z,99472.16
2023-02-28T22:49:08.524Z,99469.06
2023-02-28T22:51:36.598Z,99473.28
2023-02-28T22:54:05.013Z,99467.09
2023-02-28T22:56:34.661Z,99477.19
2023-02-28T22:59:03.430Z,99474.84
2023-02-28T23:01:33.641Z,99486.13
2023-02-28T23:04:02.826Z,99481.84
2023-02-28T23:06:32.716Z,99473.28
2023-02-28T23:09:02.626Z,99483.00
2023-02-28T23:11:35.718Z,99481.06
2023-02-28T23:14:04.711Z,99477.16
2023-02-28T23:16:35.761Z,99478.00
2023-02-28T23:19:06.090Z,99481.47
2023-02-28T23:21:34.665Z,99482.63
2023-02-28T23:24:03.890Z,99475.28
2023-02-28T23:26:32.726Z,99481.91
2023-02-28T23:29:02.340Z,99481.50
2023-02-28T23:31:30.491Z,99482.66
2023-02-28T23:33:58.937Z,99481.91
2023-02-28T23:36:27.002Z,99481.13
2023-02-28T23:38:55.174Z,99483.09
2023-02-28T23:41:24.738Z,99478.00
2023-02-28T23:43:54.580Z,99480.34
2023-02-28T23:46:24.086Z,99486.94
2023-02-28T23:48:52.090Z,99483.78
2023-02-28T23:51:22.421Z,99477.97
2023-02-28T23:53:53.440Z,99481.84
2023-02-28T23:56:22.914Z,99489.56
2023-02-28T23:58:52.055Z,99483.25
